Time;durP1;ratioP1;P1;durP2;ratioP2;P2;SDS_P1;SDS_P2;PMS_P1;PMS_P2;Temp;Humidity;BMP_temperature;BMP_pressure;BME280_temperature;BME280_humidity;BME280_pressure;Samples;Min_cycle;Max_cycle;Signal;HPM_P1;HPM_P2
2022/09/27 00:01:34;;;;;;;2.50;1.40;;;10.60;99.90;;;;;;5073845;28;20558;-61
2022/09/27 00:04:01;;;;;;;1.97;1.87;;;10.50;99.90;;;;;;5073167;28;20487;-59
2022/09/27 00:06:30;;;;;;;1.80;1.50;;;10.60;99.90;;;;;;5073779;28;20530;-61
2022/09/27 00:08:58;;;;;;;2.30;1.75;;;10.60;99.90;;;;;;5074404;28;20508;-61
2022/09/27 00:11:28;;;;;;;2.13;1.73;;;10.60;99.90;;;;;;5073902;28;20263;-61
2022/09/27 00:13:56;;;;;;;1.87;1.60;;;10.60;99.90;;;;;;5073774;28;20700;-61
2022/09/27 00:16:23;;;;;;;3.75;1.80;;;10.60;99.90;;;;;;5073727;28;20630;-60
2022/09/27 00:18:50;;;;;;;1.60;1.50;;;10.60;99.90;;;;;;5076120;28;20677;-60
2022/09/27 00:21:17;;;;;;;2.00;1.80;;;10.60;99.90;;;;;;5075443;28;20554;-61
2022/09/27 00:23:44;;;;;;;1.70;1.50;;;10.60;99.90;;;;;;5075355;28;20526;-61
2022/09/27 00:26:13;;;;;;;1.83;1.60;;;10.60;99.90;;;;;;5078277;28;20499;-61
2022/09/27 00:28:42;;;;;;;3.13;1.40;;;10.60;99.90;;;;;;5077865;28;20533;-61
2022/09/27 00:31:30;;;;;;;2.33;1.30;;;10.60;99.90;;;;;;5078168;28;20498;-58
2022/09/27 00:33:59;;;;;;;1.70;1.60;;;10.60;99.90;;;;;;5072526;28;20292;-60
2022/09/27 00:36:27;;;;;;;1.60;1.50;;;10.60;99.90;;;;;;5077144;28;20220;-60
2022/09/27 00:38:54;;;;;;;1.85;1.30;;;10.60;99.90;;;;;;5077137;28;20292;-60
2022/09/27 00:41:24;;;;;;;2.10;1.47;;;10.60;99.90;;;;;;5077001;28;20286;-60
2022/09/27 00:43:55;;;;;;;2.40;1.80;;;10.60;99.90;;;;;;5076556;28;20885;-60
2022/09/27 00:46:28;;;;;;;1.53;1.43;;;10.60;99.90;;;;;;5076929;28;20424;-60
2022/09/27 00:49:03;;;;;;;2.03;1.83;;;10.60;99.90;;;;;;5076918;28;20463;-60
2022/09/27 00:51:32;;;;;;;1.93;1.70;;;10.60;99.90;;;;;;5076705;28;20549;-60
2022/09/27 00:54:00;;;;;;;1.90;1.80;;;10.60;99.90;;;;;;5076878;28;20494;-61
2022/09/27 00:56:31;;;;;;;2.30;1.63;;;10.60;99.90;;;;;;5077033;28;20474;-60
2022/09/27 00:59:06;;;;;;;2.00;1.90;;;10.70;99.90;;;;;;5076301;28;20514;-61
2022/09/27 01:01:33;;;;;;;1.50;1.40;;;10.70;99.90;;;;;;5076455;28;20474;-60
2022/09/27 01:04:05;;;;;;;1.70;1.60;;;10.70;99.90;;;;;;5076218;28;20978;-60
2022/09/27 01:06:32;;;;;;;2.10;1.70;;;10.70;99.90;;;;;;5076782;28;20506;-60
2022/09/27 01:08:59;;;;;;;1.93;1.73;;;10.70;99.90;;;;;;5076372;28;20526;-60
2022/09/27 01:11:36;;;;;;;4.33;1.43;;;10.70;99.90;;;;;;5076182;28;20490;-60
2022/09/27 01:14:34;;;;;;;1.90;1.80;;;10.70;99.90;;;;;;5076427;28;20759;-60
2022/09/27 01:17:10;;;;;;;2.40;1.73;;;10.60;99.90;;;;;;5076279;28;20510;-60
2022/09/27 01:19:58;;;;;;;2.23;2.13;;;10.60;99.90;;;;;;5076192;28;20510;-60
2022/09/27 01:22:30;;;;;;;2.67;2.17;;;10.60;99.90;;;;;;5076389;28;20459;-59
2022/09/27 01:25:09;;;;;;;2.40;2.20;;;10.50;99.90;;;;;;5076586;28;20507;-60
2022/09/27 01:28:02;;;;;;;2.13;1.92;;;10.50;99.90;;;;;;5076360;28;20277;-60
2022/09/27 01:30:41;;;;;;;1.80;1.70;;;10.50;99.90;;;;;;5076194;28;20190;-60
2022/09/27 01:33:31;;;;;;;1.90;1.80;;;10.50;99.90;;;;;;5075622;28;20721;-60
2022/09/27 01:36:09;;;;;;;2.47;2.27;;;10.50;99.90;;;;;;5073292;28;20570;-61
2022/09/27 01:38:45;;;;;;;2.42;2.22;;;10.50;99.90;;;;;;5075283;28;20451;-60
2022/09/27 01:41:22;;;;;;;3.77;2.37;;;10.50;99.90;;;;;;5075461;28;20271;-60
2022/09/27 01:43:56;;;;;;;2.08;1.92;;;10.50;99.90;;;;;;5075825;28;20510;-60
2022/09/27 01:46:29;;;;;;;3.50;2.40;;;10.50;99.90;;;;;;5075448;28;20567;-59
2022/09/27 01:48:58;;;;;;;2.70;2.17;;;10.50;99.90;;;;;;5075278;28;20515;-60
2022/09/27 01:51:30;;;;;;;2.40;2.20;;;10.60;99.90;;;;;;5075551;28;20311;-60
2022/09/27 01:54:02;;;;;;;2.88;2.63;;;10.60;99.90;;;;;;5076322;28;20273;-59
2022/09/27 01:56:34;;;;;;;2.45;2.25;;;10.60;99.90;;;;;;5075641;28;20217;-61
2022/09/27 01:59:05;;;;;;;2.47;2.27;;;10.60;99.90;;;;;;5075340;28;20212;-62
2022/09/27 02:01:38;;;;;;;2.97;2.67;;;10.60;99.90;;;;;;5075718;28;20518;-62
2022/09/27 02:04:08;;;;;;;2.83;2.63;;;10.60;99.90;;;;;;5075633;28;20185;-62
2022/09/27 02:06:38;;;;;;;3.35;3.05;;;10.60;99.90;;;;;;5075275;28;20292;-62
2022/09/27 02:09:09;;;;;;;3.90;3.47;;;10.60;99.90;;;;;;5075249;28;20276;-62
2022/09/27 02:11:39;;;;;;;3.73;3.30;;;10.60;99.90;;;;;;5075492;28;20315;-61
2022/09/27 02:14:15;;;;;;;3.25;2.95;;;10.60;99.90;;;;;;5075142;28;20520;-62
2022/09/27 02:16:50;;;;;;;4.00;3.10;;;10.50;99.90;;;;;;5074975;28;20295;-62
2022/09/27 02:19:27;;;;;;;3.35;3.05;;;10.50;99.90;;;;;;5074726;28;20185;-62
2022/09/27 02:22:01;;;;;;;4.43;4.03;;;10.50;99.90;;;;;;5075009;28;20307;-63
2022/09/27 02:24:37;;;;;;;4.20;3.80;;;10.50;99.90;;;;;;5074957;28;20511;-61
2022/09/27 02:27:11;;;;;;;4.13;3.73;;;10.50;99.90;;;;;;5074602;28;20987;-62
2022/09/27 02:29:43;;;;;;;3.53;3.22;;;10.50;99.90;;;;;;5074917;28;20514;-62
2022/09/27 02:32:12;;;;;;;3.85;3.45;;;10.40;99.90;;;;;;5074202;28;20677;-61
2022/09/27 02:34:40;;;;;;;3.80;3.50;;;10.40;99.90;;;;;;5074667;28;20617;-61
2022/09/27 02:37:07;;;;;;;4.18;3.25;;;10.40;99.90;;;;;;5074465;28;20316;-61
2022/09/27 02:39:34;;;;;;;4.25;3.85;;;10.40;99.90;;;;;;5074627;28;20291;-62
2022/09/27 02:42:02;;;;;;;4.10;3.65;;;10.40;99.90;;;;;;5074388;28;20634;-62
2022/09/27 02:44:30;;;;;;;3.78;2.97;;;10.40;99.90;;;;;;5074356;28;20307;-62
2022/09/27 02:47:27;;;;;;;3.92;3.28;;;10.40;99.90;;;;;;5074374;28;20292;-62
2022/09/27 02:50:01;;;;;;;3.70;3.40;;;10.30;99.90;;;;;;5072925;28;20271;-61
2022/09/27 02:52:38;;;;;;;4.53;4.13;;;10.30;99.90;;;;;;5074208;28;20312;-62
2022/09/27 02:55:12;;;;;;;4.05;3.38;;;10.30;99.90;;;;;;5074234;28;20517;-62
2022/09/27 02:57:54;;;;;;;5.80;3.92;;;10.30;99.90;;;;;;5073923;28;20280;-62
2022/09/27 03:00:24;;;;;;;4.67;4.10;;;10.30;99.90;;;;;;5073887;28;20197;-62
2022/09/27 03:02:59;;;;;;;5.30;4.47;;;10.40;99.90;;;;;;5073659;28;20983;-62
2022/09/27 03:05:29;;;;;;;4.38;4.07;;;10.40;99.90;;;;;;5073983;28;20268;-62
2022/09/27 03:07:56;;;;;;;7.10;5.07;;;10.40;99.90;;;;;;5073923;28;20204;-61
2022/09/27 03:10:25;;;;;;;3.83;3.53;;;10.40;99.90;;;;;;5074000;28;20447;-62
2022/09/27 03:12:53;;;;;;;6.80;4.75;;;10.40;99.90;;;;;;5073410;28;20498;-62
2022/09/27 03:15:20;;;;;;;5.13;4.70;;;10.40;99.90;;;;;;5074571;28;20239;-62
2022/09/27 03:17:47;;;;;;;4.82;4.35;;;10.40;99.90;;;;;;5073444;28;21030;-62
2022/09/27 03:20:15;;;;;;;4.93;4.47;;;10.50;99.90;;;;;;5073709;28;20292;-62
2022/09/27 03:22:42;;;;;;;4.67;4.27;;;10.50;99.90;;;;;;5073654;28;20253;-62
2022/09/27 03:25:10;;;;;;;5.63;5.13;;;10.50;99.90;;;;;;5073401;28;20454;-62
2022/09/27 03:27:36;;;;;;;6.85;5.05;;;10.50;99.90;;;;;;5073608;28;20228;-62
2022/09/27 03:30:05;;;;;;;5.13;4.63;;;10.50;99.90;;;;;;5073185;28;20297;-61
2022/09/27 03:32:32;;;;;;;5.72;4.40;;;10.50;99.90;;;;;;5073512;28;20583;-63
2022/09/27 03:34:59;;;;;;;4.83;4.33;;;10.50;99.90;;;;;;5073575;28;20251;-62
2022/09/27 03:37:28;;;;;;;5.60;4.25;;;10.50;99.90;;;;;;5073469;28;20570;-62
2022/09/27 03:39:55;;;;;;;4.78;4.38;;;10.50;99.90;;;;;;5073078;28;20672;-62
2022/09/27 03:42:22;;;;;;;5.50;4.80;;;10.50;99.90;;;;;;5072984;28;20791;-62
2022/09/27 03:44:50;;;;;;;5.40;4.90;;;10.50;99.90;;;;;;5073338;28;20291;-62
2022/09/27 03:47:16;;;;;;;5.15;4.63;;;10.50;99.90;;;;;;5073122;28;20686;-62
2022/09/27 03:49:43;;;;;;;5.30;4.80;;;10.50;99.90;;;;;;5073287;28;20240;-62
2022/09/27 03:52:10;;;;;;;5.90;5.07;;;10.50;99.90;;;;;;5073180;28;20308;-62
2022/09/27 03:54:38;;;;;;;6.97;4.63;;;10.50;99.90;;;;;;5073160;28;20450;-62
2022/09/27 03:57:05;;;;;;;7.43;5.73;;;10.50;99.90;;;;;;5072746;28;20507;-62
2022/09/27 03:59:32;;;;;;;7.67;6.03;;;10.50;99.90;;;;;;5072756;28;20931;-62
2022/09/27 04:01:59;;;;;;;8.93;6.38;;;10.50;99.90;;;;;;5072500;28;20542;-62
2022/09/27 04:04:26;;;;;;;7.83;6.53;;;10.50;99.90;;;;;;5073112;28;20287;-62
2022/09/27 04:10:20;;;;;;;7.80;6.77;;;10.40;99.90;;;;;;5090983;28;21261;-62
2022/09/27 04:12:47;;;;;;;6.05;5.05;;;10.40;99.90;;;;;;5090691;28;20505;-63
2022/09/27 04:15:14;;;;;;;7.47;5.82;;;10.30;99.90;;;;;;5090524;28;20287;-63
2022/09/27 04:17:42;;;;;;;6.28;4.40;;;10.20;99.90;;;;;;5091041;28;20288;-63
2022/09/27 04:20:09;;;;;;;7.35;5.35;;;10.20;99.90;;;;;;5090515;28;20212;-62
2022/09/27 04:22:39;;;;;;;7.65;4.82;;;10.10;99.90;;;;;;5090701;28;20252;-63
2022/09/27 04:25:07;;;;;;;7.10;5.00;;;10.10;99.90;;;;;;5090981;28;20250;-62
2022/09/27 04:27:36;;;;;;;9.27;6.47;;;10.10;99.90;;;;;;5097632;28;20238;-63
2022/09/27 04:30:03;;;;;;;12.45;8.77;;;10.00;99.90;;;;;;5093148;28;20307;-62
2022/09/27 04:32:30;;;;;;;12.65;8.40;;;10.10;99.90;;;;;;5090386;28;20668;-62
2022/09/27 04:37:42;;;;;;;17.25;8.63;;;10.10;99.90;;;;;;5090284;28;20184;-62
2022/09/27 04:40:09;;;;;;;17.40;9.52;;;10.10;99.90;;;;;;5090402;28;20304;-61
2022/09/27 04:42:38;;;;;;;12.35;8.63;;;10.10;99.90;;;;;;5090314;28;20307;-62
2022/09/27 04:45:06;;;;;;;12.82;8.40;;;10.10;99.90;;;;;;5090043;28;20759;-61
2022/09/27 04:47:33;;;;;;;13.32;8.45;;;10.10;99.90;;;;;;5090009;28;20758;-62
2022/09/27 04:49:59;;;;;;;14.50;9.55;;;10.10;99.90;;;;;;5089886;28;20260;-62
2022/09/27 04:52:26;;;;;;;13.10;9.00;;;10.10;99.90;;;;;;5090070;28;20305;-62
2022/09/27 04:54:53;;;;;;;11.60;7.63;;;10.10;99.90;;;;;;5090050;28;20204;-63
2022/09/27 04:57:20;;;;;;;14.35;7.97;;;10.10;99.90;;;;;;5089864;28;20647;-62
2022/09/27 04:59:49;;;;;;;12.98;7.97;;;10.00;99.90;;;;;;5089718;28;20287;-62
2022/09/27 05:02:16;;;;;;;11.73;7.38;;;10.00;99.90;;;;;;5089811;28;20278;-63
2022/09/27 05:04:43;;;;;;;9.82;7.55;;;10.00;99.90;;;;;;5090559;28;20291;-62
2022/09/27 05:07:10;;;;;;;12.90;7.53;;;10.00;99.90;;;;;;5089689;28;20771;-62
2022/09/27 05:09:37;;;;;;;11.35;6.20;;;10.00;99.90;;;;;;5089741;28;20307;-62
2022/09/27 05:12:06;;;;;;;9.10;6.05;;;10.00;99.90;;;;;;5092993;28;20221;-62
2022/09/27 05:14:33;;;;;;;10.35;6.22;;;10.00;99.90;;;;;;5083480;28;20553;-61
2022/09/27 05:17:02;;;;;;;12.93;6.55;;;10.00;99.90;;;;;;5092772;28;20227;-61
2022/09/27 05:19:29;;;;;;;6.85;5.03;;;10.00;99.90;;;;;;5077979;28;20236;-61
2022/09/27 05:21:55;;;;;;;7.93;5.10;;;9.90;99.90;;;;;;5064403;28;20224;-62
2022/09/27 05:24:22;;;;;;;12.85;5.85;;;9.90;99.90;;;;;;5062552;28;20202;-61
2022/09/27 05:26:49;;;;;;;8.73;4.68;;;9.90;99.90;;;;;;5070874;28;20224;-61
2022/09/27 05:29:17;;;;;;;8.85;5.60;;;9.90;99.90;;;;;;5066546;28;20222;-61
2022/09/27 05:31:44;;;;;;;5.03;4.20;;;9.90;99.90;;;;;;5062906;28;20233;-62
2022/09/27 05:34:12;;;;;;;9.80;5.57;;;9.90;99.90;;;;;;5073107;28;20287;-62
2022/09/27 05:36:39;;;;;;;9.55;5.60;;;9.90;99.90;;;;;;5076415;28;20291;-64
2022/09/27 05:39:06;;;;;;;12.05;5.30;;;9.90;99.90;;;;;;5076049;28;20296;-62
2022/09/27 05:41:33;;;;;;;9.77;5.25;;;9.90;99.90;;;;;;5076259;28;20286;-60
2022/09/27 05:44:00;;;;;;;7.75;5.00;;;9.90;99.90;;;;;;5076023;28;20293;-62
2022/09/27 05:46:27;;;;;;;8.25;4.90;;;9.90;99.90;;;;;;5075622;28;20288;-62
2022/09/27 05:48:54;;;;;;;8.45;5.10;;;9.90;99.90;;;;;;5075429;28;20312;-62
2022/09/27 05:51:22;;;;;;;9.85;5.20;;;9.90;99.90;;;;;;5075472;28;20271;-62
2022/09/27 05:53:49;;;;;;;12.13;5.68;;;9.90;99.90;;;;;;5075034;28;20235;-63
2022/09/27 05:56:17;;;;;;;8.25;4.75;;;9.90;99.90;;;;;;5069877;28;20215;-62
2022/09/27 05:58:44;;;;;;;10.88;5.40;;;10.00;99.90;;;;;;5067948;28;20613;-62
2022/09/27 06:01:11;;;;;;;7.55;4.60;;;10.00;99.90;;;;;;5069804;28;20748;-63
2022/09/27 06:03:39;;;;;;;6.95;5.10;;;10.00;99.90;;;;;;5074882;28;20288;-62
2022/09/27 06:06:09;;;;;;;7.10;5.20;;;10.00;99.90;;;;;;5068866;28;20194;-63
2022/09/27 06:08:38;;;;;;;6.88;5.10;;;10.00;99.90;;;;;;5059112;28;20673;-62
2022/09/27 06:11:07;;;;;;;6.80;4.80;;;10.00;99.90;;;;;;5071970;28;20289;-63
2022/09/27 06:13:35;;;;;;;9.68;5.90;;;10.10;99.90;;;;;;5070392;28;20285;-63
2022/09/27 06:16:02;;;;;;;9.30;5.53;;;10.10;99.90;;;;;;5054718;28;20228;-63
2022/09/27 06:18:29;;;;;;;7.80;5.70;;;10.10;99.90;;;;;;5054391;28;20645;-64
2022/09/27 06:20:59;;;;;;;7.75;5.07;;;10.10;99.90;;;;;;5054017;28;20472;-63
2022/09/27 06:23:26;;;;;;;7.18;5.10;;;10.10;99.90;;;;;;5062434;28;20216;-63
2022/09/27 06:25:54;;;;;;;7.95;4.90;;;10.10;99.90;;;;;;5074273;28;20295;-62
2022/09/27 06:28:22;;;;;;;6.88;4.80;;;10.10;99.90;;;;;;5075313;28;20224;-61
2022/09/27 06:30:50;;;;;;;8.60;4.40;;;10.10;99.90;;;;;;5074230;28;20260;-62
2022/09/27 06:33:18;;;;;;;9.02;3.97;;;10.10;99.90;;;;;;5073329;28;20308;-62
2022/09/27 06:35:46;;;;;;;8.85;4.35;;;10.10;99.90;;;;;;5073869;28;20237;-62
2022/09/27 06:38:14;;;;;;;7.05;4.43;;;10.10;99.90;;;;;;5072874;28;20620;-63
2022/09/27 06:40:44;;;;;;;11.20;4.90;;;10.10;99.90;;;;;;5074401;28;20586;-62
2022/09/27 06:43:13;;;;;;;8.27;4.63;;;10.20;99.90;;;;;;5073544;28;20243;-61
2022/09/27 06:45:41;;;;;;;7.03;5.30;;;10.20;99.90;;;;;;5063815;28;20227;-63
2022/09/27 06:48:11;;;;;;;7.07;5.10;;;10.20;99.90;;;;;;5069972;22;20726;-59
2022/09/27 06:50:40;;;;;;;8.32;4.53;;;10.20;99.90;;;;;;5034262;28;20214;-59
2022/09/27 06:53:09;;;;;;;7.43;4.82;;;10.20;99.90;;;;;;5032327;28;20281;-59
2022/09/27 06:55:36;;;;;;;6.03;4.90;;;10.20;99.90;;;;;;5033669;28;20202;-60
2022/09/27 07:00:52;;;;;;;6.82;5.13;;;10.20;99.90;;;;;;5035215;28;20189;-60
2022/09/27 07:03:19;;;;;;;6.22;4.95;;;10.30;99.90;;;;;;5037585;28;20223;-59
2022/09/27 07:05:55;;;;;;;11.20;5.35;;;10.30;99.90;;;;;;5040255;28;20237;-60
2022/09/27 07:08:23;;;;;;;7.45;5.15;;;10.30;99.90;;;;;;5038598;28;20788;-61
2022/09/27 07:10:51;;;;;;;10.65;5.60;;;10.20;99.90;;;;;;5038613;28;20236;-62
2022/09/27 07:13:42;;;;;;;9.35;4.95;;;10.20;99.90;;;;;;5038022;28;20669;-63
2022/09/27 07:16:13;;;;;;;9.23;5.97;;;10.20;99.90;;;;;;5035421;28;20222;-58
2022/09/27 07:18:40;;;;;;;8.40;5.75;;;10.20;99.90;;;;;;5035188;28;20225;-59
2022/09/27 07:21:08;;;;;;;8.85;5.75;;;10.10;99.90;;;;;;5034499;28;20233;-60
2022/09/27 07:23:41;;;;;;;8.57;4.95;;;10.10;99.90;;;;;;5034873;28;20217;-62
2022/09/27 07:26:09;;;;;;;11.82;5.97;;;10.10;99.90;;;;;;5033757;28;20191;-60
2022/09/27 07:28:36;;;;;;;7.05;5.25;;;10.10;99.90;;;;;;5033981;28;20214;-60
2022/09/27 07:31:04;;;;;;;9.18;5.03;;;10.10;99.90;;;;;;5034209;28;20210;-61
2022/09/27 07:33:32;;;;;;;7.35;4.70;;;10.10;99.90;;;;;;5034324;28;20634;-60
2022/09/27 07:35:59;;;;;;;6.55;5.15;;;10.10;99.90;;;;;;5034747;28;20316;-61
2022/09/27 07:38:27;;;;;;;7.25;4.63;;;10.10;99.90;;;;;;5036213;28;20305;-61
2022/09/27 07:40:53;;;;;;;9.88;5.97;;;10.10;99.90;;;;;;5036253;28;20222;-60
2022/09/27 07:43:20;;;;;;;6.47;4.80;;;10.20;99.90;;;;;;5042758;28;20198;-60
2022/09/27 07:45:47;;;;;;;5.20;4.30;;;10.20;99.90;;;;;;5041876;28;20214;-60
2022/09/27 07:48:16;;;;;;;10.20;4.75;;;10.20;99.90;;;;;;5041951;28;20384;-61
2022/09/27 07:50:44;;;;;;;5.40;4.28;;;10.20;99.90;;;;;;5043000;28;20226;-58
2022/09/27 07:53:12;;;;;;;4.55;4.13;;;10.20;99.90;;;;;;5037410;28;20202;-63
2022/09/27 07:55:41;;;;;;;6.65;4.20;;;10.20;99.90;;;;;;5033045;28;20214;-60
2022/09/27 07:58:10;;;;;;;8.05;4.95;;;10.20;99.90;;;;;;5030988;28;20221;-59
2022/09/27 08:00:38;;;;;;;6.90;4.45;;;10.30;99.90;;;;;;5034429;28;20666;-59
2022/09/27 08:03:06;;;;;;;8.13;5.25;;;10.30;99.90;;;;;;5029260;28;20278;-59
2022/09/27 08:05:35;;;;;;;6.00;4.10;;;10.30;99.90;;;;;;5024963;28;20217;-60
2022/09/27 08:08:03;;;;;;;7.80;5.07;;;10.30;99.90;;;;;;5028355;28;20233;-59
2022/09/27 08:10:33;;;;;;;8.35;4.20;;;10.30;99.90;;;;;;5025537;28;20758;-61
2022/09/27 08:13:02;;;;;;;4.97;4.43;;;10.30;99.90;;;;;;5028745;28;20201;-59
2022/09/27 08:15:30;;;;;;;7.70;5.60;;;10.30;99.90;;;;;;5032792;28;20559;-57
2022/09/27 08:17:58;;;;;;;6.75;5.07;;;10.20;99.90;;;;;;5032737;28;20519;-60
2022/09/27 08:20:25;;;;;;;6.57;4.93;;;10.20;99.90;;;;;;5032518;28;20616;-59
2022/09/27 08:22:52;;;;;;;7.55;5.00;;;10.20;99.90;;;;;;5031832;28;20199;-57
2022/09/27 08:25:23;;;;;;;10.00;5.07;;;10.10;99.90;;;;;;5031646;28;20198;-58
2022/09/27 08:27:55;;;;;;;8.02;5.40;;;10.10;99.90;;;;;;5032176;28;20308;-58
2022/09/27 08:30:22;;;;;;;7.82;5.25;;;10.20;99.90;;;;;;5032412;28;20233;-60
2022/09/27 08:32:49;;;;;;;6.03;4.68;;;10.20;99.90;;;;;;5032837;28;20272;-58
2022/09/27 08:35:16;;;;;;;5.28;4.40;;;10.20;99.90;;;;;;5032757;28;20265;-59
2022/09/27 08:37:43;;;;;;;5.22;4.35;;;10.30;99.90;;;;;;5032493;28;20729;-60
2022/09/27 08:40:14;;;;;;;6.40;4.65;;;10.30;99.90;;;;;;5032659;28;20615;-58
2022/09/27 08:42:48;;;;;;;8.82;4.55;;;10.40;99.90;;;;;;5033098;28;20273;-59
2022/09/27 08:45:22;;;;;;;9.70;4.63;;;10.50;99.90;;;;;;5032471;28;20218;-61
2022/09/27 08:47:54;;;;;;;5.20;4.40;;;10.70;99.90;;;;;;5033118;28;20798;-60
2022/09/27 08:50:26;;;;;;;6.20;4.70;;;10.80;99.90;;;;;;5032354;28;20495;-59
2022/09/27 08:52:59;;;;;;;4.73;3.83;;;10.90;99.90;;;;;;5032722;28;20502;-59
2022/09/27 08:55:31;;;;;;;5.37;4.50;;;11.00;99.90;;;;;;5033756;28;20441;-60
2022/09/27 08:58:00;;;;;;;5.03;4.20;;;10.90;99.90;;;;;;5036464;28;20449;-59
2022/09/27 09:00:29;;;;;;;7.43;4.33;;;11.00;99.90;;;;;;5036895;28;20445;-58
2022/09/27 09:02:56;;;;;;;8.00;4.97;;;11.00;99.90;;;;;;5037473;28;20540;-59
2022/09/27 09:05:29;;;;;;;4.80;4.13;;;11.10;99.90;;;;;;5037390;28;20470;-61
2022/09/27 09:08:21;;;;;;;6.17;3.40;;;11.10;99.90;;;;;;5035920;28;20472;-60
2022/09/27 09:14:21;;;;;;;4.07;2.63;;;11.10;99.90;;;;;;5012268;28;20483;-60
2022/09/27 09:16:55;;;;;;;4.23;2.80;;;11.20;99.90;;;;;;5026239;28;20536;-60
2022/09/27 09:19:38;;;;;;;4.60;2.77;;;11.40;99.90;;;;;;5036713;28;20925;-60
2022/09/27 09:22:24;;;;;;;3.30;2.80;;;11.60;99.90;;;;;;5036318;28;21000;-59
2022/09/27 09:25:02;;;;;;;6.10;3.37;;;11.70;99.90;;;;;;5036458;28;20437;-60
2022/09/27 09:27:41;;;;;;;2.93;2.63;;;11.80;99.90;;;;;;5035985;28;20472;-61
2022/09/27 09:30:25;;;;;;;3.77;2.33;;;11.80;99.90;;;;;;5036205;28;20471;-60
2022/09/27 09:33:21;;;;;;;4.13;2.30;;;11.90;99.90;;;;;;5034803;28;21027;-59
2022/09/27 09:35:57;;;;;;;4.03;3.10;;;12.00;99.90;;;;;;5038831;28;20451;-63
2022/09/27 09:38:29;;;;;;;3.73;2.30;;;12.10;99.90;;;;;;5038627;28;20464;-62
2022/09/27 09:41:02;;;;;;;3.13;2.03;;;12.20;99.90;;;;;;5045538;28;20445;-59
2022/09/27 09:43:33;;;;;;;2.20;2.10;;;12.30;99.90;;;;;;5036813;28;20477;-60
2022/09/27 09:46:07;;;;;;;4.70;2.23;;;12.60;99.90;;;;;;5038330;28;20524;-59
2022/09/27 09:48:39;;;;;;;2.37;2.07;;;12.60;99.90;;;;;;5037928;28;20480;-60
2022/09/27 09:51:12;;;;;;;3.47;2.23;;;12.60;99.90;;;;;;5036002;28;20560;-61
2022/09/27 09:53:43;;;;;;;3.27;2.17;;;12.50;99.90;;;;;;5036227;28;20852;-60
2022/09/27 09:56:17;;;;;;;4.47;2.53;;;12.30;99.90;;;;;;5036381;28;20472;-60
2022/09/27 09:58:49;;;;;;;3.10;1.70;;;12.20;99.90;;;;;;5035907;28;20480;-58
2022/09/27 10:01:21;;;;;;;3.30;2.50;;;12.20;99.90;;;;;;5035239;28;20984;-60
2022/09/27 10:03:49;;;;;;;7.63;2.57;;;12.20;99.90;;;;;;5035986;28;20434;-58
2022/09/27 10:06:17;;;;;;;3.73;2.30;;;12.30;99.90;;;;;;5035135;28;20984;-60
2022/09/27 10:08:44;;;;;;;2.40;1.70;;;12.50;99.90;;;;;;5035672;28;21025;-60
2022/09/27 10:11:20;;;;;;;3.07;1.60;;;12.50;99.90;;;;;;5035391;28;20555;-60
2022/09/27 10:13:49;;;;;;;2.07;1.73;;;12.50;99.90;;;;;;5035334;28;20554;-61
2022/09/27 10:16:19;;;;;;;5.90;2.57;;;12.50;99.90;;;;;;5036687;28;20456;-62
2022/09/27 10:18:47;;;;;;;2.80;2.23;;;12.40;99.90;;;;;;5034990;28;20470;-61
2022/09/27 10:21:21;;;;;;;5.57;2.00;;;12.40;99.90;;;;;;5035100;28;20956;-60
2022/09/27 10:24:08;;;;;;;3.77;2.30;;;12.50;99.90;;;;;;5035489;28;20476;-61
2022/09/27 10:26:36;;;;;;;6.93;2.10;;;12.70;99.90;;;;;;5037662;28;20779;-61
2022/09/27 10:29:23;;;;;;;3.10;1.80;;;12.60;99.90;;;;;;5039548;28;20449;-60
2022/09/27 10:31:55;;;;;;;2.40;1.93;;;12.20;99.90;;;;;;5037478;28;20480;-61
2022/09/27 10:34:28;;;;;;;2.87;1.57;;;11.80;99.90;;;;;;5038287;28;20503;-61
2022/09/27 10:37:16;;;;;;;1.43;1.20;;;11.40;99.90;;;;;;5042410;28;20472;-60
2022/09/27 10:39:44;;;;;;;4.90;2.10;;;11.00;99.90;;;;;;5020789;28;20953;-60
2022/09/27 10:42:32;;;;;;;2.93;1.67;;;10.80;99.90;;;;;;5034660;28;20507;-62
2022/09/27 10:45:20;;;;;;;2.43;1.20;;;10.60;99.90;;;;;;5034374;28;20445;-61
2022/09/27 10:47:48;;;;;;;4.40;1.27;;;10.50;99.90;;;;;;5033889;28;20473;-61
2022/09/27 10:50:21;;;;;;;1.95;1.35;;;10.40;99.90;;;;;;5034608;28;20261;-62
2022/09/27 10:52:49;;;;;;;1.60;1.42;;;10.40;99.90;;;;;;5034452;28;20197;-61
2022/09/27 10:55:25;;;;;;;4.07;1.83;;;10.50;99.90;;;;;;5034973;28;20190;-63
2022/09/27 10:57:54;;;;;;;2.78;1.60;;;10.50;99.90;;;;;;5035243;28;20583;-62
2022/09/27 11:00:23;;;;;;;2.75;1.80;;;10.50;99.90;;;;;;5034900;28;20625;-63
2022/09/27 11:02:55;;;;;;;9.43;2.58;;;10.60;99.90;;;;;;5035210;28;20654;-62
2022/09/27 11:05:34;;;;;;;3.08;1.90;;;10.60;99.90;;;;;;5034993;28;20198;-62
2022/09/27 11:08:03;;;;;;;2.93;2.10;;;10.70;99.90;;;;;;5035213;28;20296;-61
2022/09/27 11:10:32;;;;;;;2.00;1.80;;;10.90;99.90;;;;;;5034871;28;20512;-62
2022/09/27 11:13:13;;;;;;;2.87;1.70;;;11.20;99.90;;;;;;5034581;28;20279;-60
2022/09/27 11:15:52;;;;;;;2.00;1.50;;;11.50;99.90;;;;;;5034472;28;20441;-61
2022/09/27 11:18:30;;;;;;;2.40;1.60;;;11.90;99.90;;;;;;5033632;28;20469;-60
2022/09/27 11:21:03;;;;;;;2.37;1.63;;;12.10;99.90;;;;;;5034551;28;20441;-59
2022/09/27 11:23:42;;;;;;;2.70;1.97;;;12.20;99.90;;;;;;5035248;28;20437;-61
2022/09/27 11:26:25;;;;;;;2.87;1.77;;;12.10;99.90;;;;;;5035719;28;20551;-60
2022/09/27 11:29:09;;;;;;;2.30;1.50;;;12.00;99.90;;;;;;5034105;28;20469;-60
2022/09/27 11:31:42;;;;;;;2.30;1.20;;;11.80;99.90;;;;;;5034296;28;20480;-62
2022/09/27 11:34:36;;;;;;;1.80;1.07;;;11.70;99.90;;;;;;5034165;28;20536;-61
2022/09/27 11:37:15;;;;;;;1.87;1.10;;;11.40;99.90;;;;;;5033342;28;20984;-61
2022/09/27 11:39:55;;;;;;;2.23;0.97;;;11.10;99.90;;;;;;5034203;28;20446;-60
2022/09/27 11:42:44;;;;;;;2.20;0.90;;;11.00;99.90;;;;;;5033849;28;20941;-60
2022/09/27 11:45:28;;;;;;;2.10;0.60;;;10.80;99.90;;;;;;5020585;28;20533;-61
2022/09/27 11:48:11;;;;;;;1.47;0.90;;;10.70;99.90;;;;;;5034454;28;20371;-59
2022/09/27 11:51:07;;;;;;;2.08;0.85;;;10.50;99.90;;;;;;5035094;28;20475;-59
2022/09/27 11:53:57;;;;;;;0.70;0.60;;;10.30;99.90;;;;;;5033972;28;20186;-62
2022/09/27 11:56:36;;;;;;;1.10;0.90;;;10.00;99.90;;;;;;5033738;28;20192;-61
2022/09/27 11:59:43;;;;;;;1.42;1.10;;;9.80;99.90;;;;;;5034543;28;20556;-61
2022/09/27 12:02:34;;;;;;;1.67;0.90;;;9.70;99.90;;;;;;5033465;28;20190;-61
2022/09/27 12:05:18;;;;;;;0.93;0.73;;;9.70;99.90;;;;;;5034160;28;20202;-61
2022/09/27 12:07:54;;;;;;;3.33;1.10;;;9.60;99.90;;;;;;5034840;28;20218;-62
2022/09/27 12:10:21;;;;;;;1.25;1.00;;;9.60;99.90;;;;;;5033886;28;20277;-60
2022/09/27 12:12:53;;;;;;;1.10;1.00;;;9.50;99.90;;;;;;5034526;28;20205;-61
2022/09/27 12:15:22;;;;;;;1.20;1.10;;;9.60;99.90;;;;;;5033734;28;20202;-60
2022/09/27 12:17:54;;;;;;;1.90;0.93;;;9.60;99.90;;;;;;5033090;28;20226;-61
2022/09/27 12:20:23;;;;;;;1.50;0.85;;;9.70;99.90;;;;;;5035142;28;20191;-60
2022/09/27 12:22:58;;;;;;;4.28;0.88;;;9.70;99.90;;;;;;5035473;28;20693;-60
2022/09/27 12:25:30;;;;;;;1.10;0.90;;;9.50;99.90;;;;;;5036060;28;20194;-61
2022/09/27 12:28:04;;;;;;;1.77;1.20;;;9.40;99.90;;;;;;5039505;28;20587;-61
2022/09/27 12:30:34;;;;;;;1.15;0.95;;;9.40;99.90;;;;;;5039931;28;20204;-60
2022/09/27 12:33:07;;;;;;;1.02;0.88;;;9.30;99.90;;;;;;5044854;28;20265;-62
2022/09/27 12:35:41;;;;;;;1.60;1.25;;;9.30;99.90;;;;;;5040315;28;20189;-60
2022/09/27 12:38:15;;;;;;;2.47;1.10;;;9.30;99.90;;;;;;5037882;28;20256;-63
2022/09/27 12:40:46;;;;;;;0.88;0.82;;;9.30;99.90;;;;;;5037568;28;20183;-61
2022/09/27 12:43:18;;;;;;;1.27;0.80;;;9.40;99.90;;;;;;5037579;28;20190;-62
2022/09/27 12:45:51;;;;;;;3.22;1.33;;;9.40;99.90;;;;;;5037147;28;20190;-63
2022/09/27 12:48:28;;;;;;;1.00;0.90;;;9.40;99.90;;;;;;5070559;22;20222;-62
2022/09/27 12:51:00;;;;;;;1.20;1.10;;;9.40;99.90;;;;;;5036280;28;20217;-62
2022/09/27 12:53:33;;;;;;;3.53;1.40;;;9.40;99.90;;;;;;5035360;28;20556;-62
2022/09/27 12:56:29;;;;;;;1.15;1.05;;;9.40;99.90;;;;;;5035411;28;20187;-64
2022/09/27 12:59:34;;;;;;;1.35;1.23;;;9.40;99.90;;;;;;5030615;28;20589;-63
2022/09/27 13:02:42;;;;;;;2.65;1.20;;;9.50;99.90;;;;;;5035536;28;20182;-62
2022/09/27 13:05:44;;;;;;;4.20;1.58;;;9.50;99.90;;;;;;5035470;28;20569;-64
2022/09/27 13:08:26;;;;;;;3.10;1.73;;;9.50;99.90;;;;;;5033115;28;20325;-62
2022/09/27 13:11:06;;;;;;;3.95;2.55;;;9.60;99.90;;;;;;5035904;28;20373;-63
2022/09/27 13:13:34;;;;;;;4.07;1.80;;;9.60;99.90;;;;;;5035442;28;20236;-62
2022/09/27 13:16:02;;;;;;;1.83;1.30;;;9.70;99.90;;;;;;5035342;28;20202;-63
2022/09/27 13:18:33;;;;;;;1.83;1.73;;;9.70;99.90;;;;;;5035234;28;20336;-63
2022/09/27 13:21:01;;;;;;;2.47;1.40;;;9.80;99.90;;;;;;5035341;28;20270;-63
2022/09/27 13:24:00;;;;;;;2.38;1.20;;;9.80;99.90;;;;;;5035988;28;20229;-63
2022/09/27 13:26:50;;;;;;;2.65;1.27;;;9.90;99.90;;;;;;5037025;28;20673;-62